createdAt,value
2022-08-26T00:01:53.844Z,3.08
2022-08-26T00:04:22.326Z,3.40
2022-08-26T00:06:49.463Z,3.85
2022-08-26T00:09:16.868Z,3.33
2022-08-26T00:11:46.328Z,2.78
2022-08-26T00:14:15.249Z,2.38
2022-08-26T00:16:48.005Z,2.83
2022-08-26T00:19:20.668Z,4.28
2022-08-26T00:21:50.107Z,4.57
2022-08-26T00:24:19.408Z,2.50
2022-08-26T00:26:47.027Z,2.70
2022-08-26T00:29:14.215Z,2.97
2022-08-26T00:31:42.673Z,2.72
2022-08-26T00:34:12.526Z,2.38
2022-08-26T00:36:41.099Z,2.63
2022-08-26T00:39:08.695Z,2.53
2022-08-26T00:41:39.198Z,3.20
2022-08-26T00:44:07.165Z,3.35
2022-08-26T00:46:37.314Z,2.90
2022-08-26T00:49:16.058Z,3.08
2022-08-26T00:51:49.514Z,3.17
2022-08-26T00:54:19.535Z,2.97
2022-08-26T00:56:57.826Z,3.08
2022-08-26T00:59:30.188Z,3.22
2022-08-26T01:02:02.860Z,3.33
2022-08-26T01:04:33.640Z,2.97
2022-08-26T01:07:01.531Z,3.28
2022-08-26T01:09:28.659Z,2.35
2022-08-26T01:11:59.200Z,2.58
2022-08-26T01:14:30.117Z,2.03
2022-08-26T01:16:57.185Z,2.38
2022-08-26T01:19:30.106Z,2.67
2022-08-26T01:22:00.551Z,2.05
2022-08-26T01:24:29.671Z,3.42
2022-08-26T01:27:05.278Z,2.78
2022-08-26T01:29:35.309Z,3.38
2022-08-26T01:32:05.004Z,2.55
2022-08-26T01:34:36.214Z,2.50
2022-08-26T01:37:23.667Z,2.42
2022-08-26T01:39:53.670Z,2.28
2022-08-26T01:42:23.909Z,2.47
2022-08-26T01:45:07.390Z,3.63
2022-08-26T01:47:36.721Z,2.35
2022-08-26T01:50:10.950Z,5.00
2022-08-26T01:52:41.800Z,3.35
2022-08-26T01:55:11.511Z,3.10
2022-08-26T01:57:38.662Z,2.97
2022-08-26T02:00:08.874Z,2.30
2022-08-26T02:02:43.916Z,2.65
2022-08-26T02:05:17.026Z,4.30
2022-08-26T02:07:45.279Z,2.38
2022-08-26T02:10:15.065Z,2.25
2022-08-26T02:12:42.770Z,2.47
2022-08-26T02:15:12.534Z,2.25
2022-08-26T02:17:45.796Z,2.50
2022-08-26T02:20:17.719Z,2.70
2022-08-26T02:22:45.570Z,2.80
2022-08-26T02:25:18.249Z,2.72
2022-08-26T02:27:47.230Z,2.42
2022-08-26T02:30:24.574Z,3.03
2022-08-26T02:32:53.318Z,2.70
2022-08-26T02:35:22.945Z,2.45
2022-08-26T02:37:52.087Z,2.60
2022-08-26T02:40:31.803Z,2.83
2022-08-26T02:42:59.002Z,2.20
2022-08-26T02:45:28.661Z,2.38
2022-08-26T02:47:58.303Z,2.67
2022-08-26T02:50:27.172Z,3.22
2022-08-26T02:52:54.189Z,2.55
2022-08-26T02:55:21.268Z,4.95
2022-08-26T02:57:52.499Z,2.75
2022-08-26T03:00:19.624Z,2.88
2022-08-26T03:02:46.621Z,3.38
2022-08-26T03:05:13.757Z,2.33
2022-08-26T03:07:42.891Z,2.72
2022-08-26T03:10:12.719Z,2.80
2022-08-26T03:12:39.993Z,3.47
2022-08-26T03:15:17.687Z,3.17
2022-08-26T03:17:46.986Z,3.33
2022-08-26T03:20:15.549Z,2.50
2022-08-26T03:22:45.086Z,3.38
2022-08-26T03:25:14.860Z,3.08
2022-08-26T03:27:43.096Z,3.58
2022-08-26T03:30:30.354Z,2.47
2022-08-26T03:32:57.547Z,2.75
2022-08-26T03:35:25.919Z,2.67
2022-08-26T03:37:53.977Z,2.22
2022-08-26T03:40:21.763Z,2.80
2022-08-26T03:42:49.841Z,2.47
2022-08-26T03:45:18.412Z,2.33
2022-08-26T03:47:47.629Z,2.95
2022-08-26T03:50:23.030Z,2.80
2022-08-26T03:52:52.857Z,2.42
2022-08-26T03:55:21.142Z,4.22
2022-08-26T03:57:51.624Z,2.20
2022-08-26T04:00:19.370Z,3.42
2022-08-26T04:02:51.265Z,2.10
2022-08-26T04:05:22.832Z,2.90
2022-08-26T04:07:50.523Z,2.85
2022-08-26T04:10:28.966Z,2.42
2022-08-26T04:12:58.930Z,3.25
2022-08-26T04:15:32.888Z,2.38
2022-08-26T04:18:00.839Z,2.17
2022-08-26T04:20:28.634Z,2.47
2022-08-26T04:22:55.574Z,2.90
2022-08-26T04:25:22.752Z,3.55
2022-08-26T04:27:51.279Z,2.53
2022-08-26T04:30:18.517Z,3.97
2022-08-26T04:32:45.763Z,2.75
2022-08-26T04:35:12.671Z,2.30
2022-08-26T04:37:39.629Z,3.50
2022-08-26T04:40:11.352Z,3.38
2022-08-26T04:42:38.348Z,3.50
2022-08-26T04:45:10.040Z,2.92
2022-08-26T04:47:38.041Z,3.03
2022-08-26T04:50:07.478Z,2.47
2022-08-26T04:52:36.357Z,2.63
2022-08-26T04:55:06.572Z,3.78
2022-08-26T04:57:35.372Z,2.60
2022-08-26T05:00:07.917Z,1.75
2022-08-26T05:02:34.855Z,2.30
2022-08-26T05:05:02.223Z,2.65
2022-08-26T05:07:29.229Z,2.65
2022-08-26T05:09:58.892Z,2.28
2022-08-26T05:12:25.864Z,4.68
2022-08-26T05:14:53.508Z,2.72
2022-08-26T05:17:20.787Z,2.85
2022-08-26T05:19:48.145Z,3.08
2022-08-26T05:22:17.515Z,4.35
2022-08-26T05:24:46.546Z,3.22
2022-08-26T05:27:14.330Z,2.83
2022-08-26T05:29:41.536Z,3.00
2022-08-26T05:32:08.466Z,2.83
2022-08-26T05:34:38.376Z,3.03
2022-08-26T05:37:06.420Z,3.97
2022-08-26T05:39:33.879Z,3.28
2022-08-26T05:42:01.368Z,3.45
2022-08-26T05:44:29.182Z,2.95
2022-08-26T05:47:16.051Z,2.92
2022-08-26T05:49:51.457Z,2.80
2022-08-26T05:52:19.147Z,2.67
2022-08-26T05:54:46.037Z,3.17
2022-08-26T05:57:14.708Z,3.28
2022-08-26T05:59:41.719Z,3.70
2022-08-26T06:02:08.885Z,3.80
2022-08-26T06:04:35.802Z,2.65
2022-08-26T06:07:03.574Z,3.97
2022-08-26T06:09:33.083Z,2.60
2022-08-26T06:12:01.952Z,3.38
2022-08-26T06:14:29.072Z,3.33
2022-08-26T06:16:56.624Z,3.75
2022-08-26T06:19:23.832Z,3.30
2022-08-26T06:21:54.729Z,3.30
2022-08-26T06:24:40.759Z,4.38
2022-08-26T06:27:11.449Z,4.63
2022-08-26T06:29:39.733Z,3.05
2022-08-26T06:32:06.981Z,3.15
2022-08-26T06:34:36.219Z,2.88
2022-08-26T06:37:03.777Z,3.17
2022-08-26T06:39:31.838Z,4.25
2022-08-26T06:42:00.295Z,2.80
2022-08-26T06:44:27.855Z,3.47
2022-08-26T06:46:55.111Z,3.30
2022-08-26T06:49:26.616Z,2.90
2022-08-26T06:51:58.691Z,3.72
2022-08-26T06:54:26.875Z,3.38
2022-08-26T06:56:56.003Z,3.00
2022-08-26T06:59:23.409Z,4.15
2022-08-26T07:01:50.455Z,3.75
2022-08-26T07:04:21.798Z,3.15
2022-08-26T07:06:52.723Z,3.53
2022-08-26T07:09:23.413Z,3.63
2022-08-26T07:11:51.527Z,4.15
2022-08-26T07:14:21.411Z,3.10
2022-08-26T07:16:52.467Z,3.70
2022-08-26T07:19:31.129Z,4.10
2022-08-26T07:22:04.152Z,5.53
2022-08-26T07:24:33.175Z,3.90
2022-08-26T07:27:05.484Z,5.22
2022-08-26T07:29:34.166Z,5.10
2022-08-26T07:32:01.445Z,5.10
2022-08-26T07:34:29.185Z,4.30
2022-08-26T07:36:57.164Z,5.85
2022-08-26T07:39:26.865Z,4.15
2022-08-26T07:41:54.485Z,5.72
2022-08-26T07:44:21.653Z,5.15
2022-08-26T07:46:53.033Z,5.03
2022-08-26T07:49:24.655Z,6.53
2022-08-26T07:51:53.463Z,4.55
2022-08-26T07:54:21.014Z,3.95
2022-08-26T07:56:54.749Z,4.55
2022-08-26T07:59:23.492Z,4.18
2022-08-26T08:01:50.637Z,4.03
2022-08-26T08:04:21.890Z,4.70
2022-08-26T08:06:53.987Z,3.80
2022-08-26T08:09:22.306Z,3.88
2022-08-26T08:11:50.030Z,3.97
2022-08-26T08:14:18.798Z,4.07
2022-08-26T08:16:51.247Z,4.10
2022-08-26T08:19:23.958Z,5.30
2022-08-26T08:22:05.251Z,3.65
2022-08-26T08:24:45.357Z,3.58
2022-08-26T08:27:18.145Z,4.05
2022-08-26T08:29:48.498Z,4.00
2022-08-26T08:32:16.013Z,3.55
2022-08-26T08:37:15.087Z,4.45
2022-08-26T08:39:42.279Z,3.60
2022-08-26T08:42:43.907Z,4.45
2022-08-26T08:45:16.897Z,3.60
2022-08-26T08:47:54.595Z,4.28
2022-08-26T08:50:28.814Z,5.07
2022-08-26T08:53:13.479Z,3.60
2022-08-26T08:56:15.305Z,5.10
2022-08-26T08:58:57.465Z,3.70
2022-08-26T09:01:45.119Z,3.47
2022-08-26T09:04:39.799Z,3.40
2022-08-26T09:07:15.989Z,3.20
2022-08-26T09:10:06.645Z,4.22
2022-08-26T09:12:36.287Z,3.97
2022-08-26T09:15:06.172Z,3.58
2022-08-26T09:17:43.448Z,3.13
2022-08-26T09:20:47.880Z,3.13
2022-08-26T09:23:16.370Z,3.75
2022-08-26T09:25:56.439Z,2.90
2022-08-26T09:28:26.296Z,3.08
2022-08-26T09:31:13.329Z,3.85
2022-08-26T09:33:41.617Z,2.78
2022-08-26T09:36:13.244Z,3.13
2022-08-26T09:38:40.403Z,2.75
2022-08-26T09:41:24.979Z,2.90
2022-08-26T09:44:17.171Z,2.63
2022-08-26T09:46:58.126Z,2.90
2022-08-26T09:49:29.860Z,2.58
2022-08-26T09:52:26.746Z,2.97
2022-08-26T09:55:12.437Z,2.63
2022-08-26T09:57:51.506Z,2.95
2022-08-26T10:00:38.588Z,3.13
2022-08-26T10:03:10.869Z,3.00
2022-08-26T10:05:43.767Z,3.50
2022-08-26T10:08:23.111Z,3.03
2022-08-26T10:10:53.305Z,3.08
2022-08-26T10:13:42.361Z,2.67
2022-08-26T10:16:31.210Z,4.00
2022-08-26T10:19:08.478Z,3.33
2022-08-26T10:21:42.676Z,3.70
2022-08-26T10:26:44.683Z,2.58
2022-08-26T10:29:34.338Z,3.15
2022-08-26T10:32:31.211Z,2.83
2022-08-26T10:34:58.377Z,3.65
2022-08-26T10:37:35.098Z,3.63
2022-08-26T10:40:23.318Z,4.20
2022-08-26T10:43:11.394Z,3.60
2022-08-26T10:45:50.536Z,3.72
2022-08-26T10:48:35.339Z,3.35
2022-08-26T10:51:04.287Z,3.90
2022-08-26T10:53:38.717Z,3.55
2022-08-26T10:56:28.554Z,3.55
2022-08-26T10:59:15.261Z,3.35
2022-08-26T11:04:50.777Z,4.10
2022-08-26T11:07:39.379Z,3.20
2022-08-26T11:10:14.060Z,4.15
2022-08-26T11:12:42.211Z,4.45
2022-08-26T11:15:24.560Z,4.15
2022-08-26T11:17:51.854Z,3.58
2022-08-26T11:20:51.302Z,3.97
2022-08-26T11:23:22.506Z,4.18
2022-08-26T11:26:01.261Z,3.67
2022-08-26T11:28:37.041Z,3.65
2022-08-26T11:31:08.782Z,3.65
2022-08-26T11:33:54.324Z,2.70
2022-08-26T11:36:36.289Z,3.40
2022-08-26T11:39:29.151Z,4.07
2022-08-26T11:42:01.738Z,2.92
2022-08-26T11:44:49.513Z,3.47
2022-08-26T11:47:27.014Z,4.00
2022-08-26T11:50:19.268Z,2.20
2022-08-26T11:53:19.229Z,2.50
2022-08-26T11:55:47.387Z,2.72
2022-08-26T11:58:15.854Z,2.28
2022-08-26T12:00:54.779Z,2.90
2022-08-26T12:03:30.745Z,2.00
2022-08-26T12:05:58.903Z,3.72
2022-08-26T12:08:29.194Z,3.58
2022-08-26T12:11:11.117Z,3.13
2022-08-26T12:13:39.338Z,2.50
2022-08-26T12:16:07.700Z,2.35
2022-08-26T12:18:38.160Z,2.50
2022-08-26T12:21:16.295Z,2.83
2022-08-26T12:23:49.953Z,3.38
2022-08-26T12:26:30.942Z,2.80
2022-08-26T12:29:20.250Z,2.92
2022-08-26T12:32:13.314Z,2.60
2022-08-26T12:34:42.781Z,3.00
2022-08-26T12:37:12.109Z,4.70
2022-08-26T12:39:43.243Z,2.92
2022-08-26T12:42:12.965Z,2.90
2022-08-26T12:44:53.186Z,3.33
2022-08-26T12:47:44.172Z,3.45
2022-08-26T12:50:35.911Z,3.15
2022-08-26T12:53:17.709Z,3.80
2022-08-26T12:56:04.658Z,3.05
2022-08-26T12:58:36.590Z,2.67
2022-08-26T13:01:06.929Z,3.63
2022-08-26T13:03:34.069Z,2.80
2022-08-26T13:06:30.201Z,2.97
2022-08-26T13:09:06.791Z,2.92
2022-08-26T13:11:55.930Z,3.08
2022-08-26T13:14:24.799Z,3.15
2022-08-26T13:16:53.126Z,3.58
2022-08-26T13:19:23.009Z,2.72
2022-08-26T13:21:55.733Z,2.83
2022-08-26T13:24:38.780Z,3.60
2022-08-26T13:27:08.326Z,2.78
2022-08-26T13:29:35.856Z,3.60
2022-08-26T13:32:05.686Z,3.55
2022-08-26T13:34:32.897Z,4.20
2022-08-26T13:36:59.863Z,3.22
2022-08-26T13:39:27.083Z,2.67
2022-08-26T13:41:54.514Z,4.45
2022-08-26T13:44:21.891Z,3.05
2022-08-26T13:46:48.949Z,3.33
2022-08-26T13:49:16.051Z,3.22
2022-08-26T13:51:43.064Z,3.10
2022-08-26T13:54:10.092Z,3.28
2022-08-26T13:56:37.592Z,3.30
2022-08-26T13:59:05.777Z,4.25
2022-08-26T14:01:35.189Z,2.90
2022-08-26T14:04:03.171Z,3.20
2022-08-26T14:06:30.735Z,3.25
2022-08-26T14:08:58.787Z,2.92
2022-08-26T14:11:27.049Z,3.50
2022-08-26T14:13:53.973Z,2.72
2022-08-26T14:16:27.470Z,2.80
2022-08-26T14:18:54.831Z,2.90
2022-08-26T14:21:21.968Z,3.15
2022-08-26T14:23:49.053Z,3.15
2022-08-26T14:26:28.160Z,2.80
2022-08-26T14:28:57.640Z,2.70
2022-08-26T14:31:27.049Z,2.45
2022-08-26T14:33:57.570Z,2.28
2022-08-26T14:36:33.301Z,4.20
2022-08-26T14:39:04.731Z,2.63
2022-08-26T14:41:33.860Z,2.83
2022-08-26T14:44:08.044Z,3.13
2022-08-26T14:46:42.454Z,2.78
2022-08-26T14:51:39.807Z,2.35
2022-08-26T14:54:14.882Z,2.92
2022-08-26T14:56:55.973Z,3.63
2022-08-26T14:59:26.683Z,2.55
2022-08-26T15:01:54.526Z,2.92
2022-08-26T15:04:23.315Z,3.58
2022-08-26T15:06:51.999Z,3.03
2022-08-26T15:09:19.233Z,3.72
2022-08-26T15:11:47.834Z,2.67
2022-08-26T15:14:19.923Z,2.65
2022-08-26T15:16:49.753Z,3.65
2022-08-26T15:19:17.220Z,2.50
2022-08-26T15:21:45.687Z,5.10
2022-08-26T15:24:14.802Z,3.13
2022-08-26T15:26:42.800Z,2.85
2022-08-26T15:29:10.146Z,2.72
2022-08-26T15:31:37.149Z,2.75
2022-08-26T15:34:08.542Z,3.35
2022-08-26T15:36:37.961Z,2.88
2022-08-26T15:39:06.933Z,3.05
2022-08-26T15:41:34.948Z,2.83
2022-08-26T15:44:03.520Z,2.47
2022-08-26T15:46:32.171Z,3.10
2022-08-26T15:48:59.562Z,3.22
2022-08-26T15:51:33.178Z,3.78
2022-08-26T15:54:03.259Z,3.70
2022-08-26T15:56:35.185Z,2.22
2022-08-26T15:59:03.843Z,3.55
2022-08-26T16:01:32.587Z,2.83
2022-08-26T16:04:00.185Z,3.20
2022-08-26T16:06:31.558Z,3.10
2022-08-26T16:08:58.798Z,2.78
2022-08-26T16:11:26.352Z,2.90
2022-08-26T16:13:53.752Z,2.75
2022-08-26T16:16:21.602Z,3.45
2022-08-26T16:18:49.670Z,3.03
2022-08-26T16:21:20.050Z,2.58
2022-08-26T16:23:47.668Z,3.78
2022-08-26T16:26:18.625Z,2.83
2022-08-26T16:28:46.088Z,3.00
2022-08-26T16:31:13.731Z,2.58
2022-08-26T16:33:40.844Z,2.25
2022-08-26T16:36:08.910Z,2.72
2022-08-26T16:38:37.732Z,3.03
2022-08-26T16:41:06.063Z,2.90
2022-08-26T16:43:33.659Z,2.88
2022-08-26T16:46:00.924Z,2.92
2022-08-26T16:48:28.111Z,3.15
2022-08-26T16:50:55.677Z,5.18
2022-08-26T16:53:23.299Z,2.53
2022-08-26T16:55:51.354Z,2.85
2022-08-26T16:58:21.998Z,2.90
2022-08-26T17:00:49.366Z,2.80
2022-08-26T17:03:17.079Z,2.85
2022-08-26T17:05:44.610Z,3.20
2022-08-26T17:08:12.157Z,2.95
2022-08-26T17:10:40.146Z,2.70
2022-08-26T17:13:07.162Z,2.75
2022-08-26T17:15:34.166Z,3.47
2022-08-26T17:18:01.121Z,2.75
2022-08-26T17:20:28.121Z,3.63
2022-08-26T17:22:56.311Z,2.88
2022-08-26T17:25:31.710Z,4.30
2022-08-26T17:27:59.251Z,3.53
2022-08-26T17:30:27.268Z,5.32
2022-08-26T17:32:57.059Z,3.55
2022-08-26T17:35:24.451Z,2.75
2022-08-26T17:37:51.938Z,3.45
2022-08-26T17:40:22.890Z,3.65
2022-08-26T17:42:50.423Z,3.53
2022-08-26T17:47:51.024Z,3.55
2022-08-26T17:50:18.636Z,3.58
2022-08-26T17:52:46.804Z,3.28
2022-08-26T17:55:15.755Z,4.65
2022-08-26T17:57:44.476Z,3.97
2022-08-26T18:00:26.503Z,3.53
2022-08-26T18:02:55.305Z,4.40
2022-08-26T18:05:23.231Z,4.57
2022-08-26T18:07:51.599Z,3.78
2022-08-26T18:10:20.610Z,3.55
2022-08-26T18:12:48.377Z,4.10
2022-08-26T18:15:17.599Z,5.18
2022-08-26T18:17:45.031Z,3.67
2022-08-26T18:20:16.884Z,3.45
2022-08-26T18:22:44.847Z,3.63
2022-08-26T18:25:12.800Z,3.53
2022-08-26T18:27:40.428Z,4.20
2022-08-26T18:30:16.278Z,4.38
2022-08-26T18:32:43.903Z,4.30
2022-08-26T18:35:12.072Z,4.78
2022-08-26T18:37:39.432Z,4.38
2022-08-26T18:40:10.091Z,4.20
2022-08-26T18:42:37.547Z,4.75
2022-08-26T18:45:07.228Z,4.32
2022-08-26T18:47:34.390Z,4.72
2022-08-26T18:50:03.846Z,4.30
2022-08-26T18:52:31.830Z,3.97
2022-08-26T18:54:59.606Z,4.32
2022-08-26T18:57:26.515Z,3.35
2022-08-26T18:59:53.431Z,4.40
2022-08-26T19:02:20.506Z,3.65
2022-08-26T19:04:47.507Z,3.92
2022-08-26T19:07:14.926Z,3.63
2022-08-26T19:09:41.856Z,4.63
2022-08-26T19:12:08.953Z,4.03
2022-08-26T19:14:36.801Z,4.38
2022-08-26T19:17:04.435Z,4.30
2022-08-26T19:19:32.141Z,4.22
2022-08-26T19:21:59.233Z,4.55
2022-08-26T19:24:27.454Z,4.80
2022-08-26T19:26:58.383Z,4.60
2022-08-26T19:29:28.622Z,4.68
2022-08-26T19:31:55.930Z,4.55
2022-08-26T19:34:22.900Z,4.13
2022-08-26T19:36:52.114Z,3.75
2022-08-26T19:39:19.999Z,3.90
2022-08-26T19:41:47.324Z,4.45
2022-08-26T19:44:36.011Z,4.10
2022-08-26T19:47:03.894Z,4.57
2022-08-26T19:49:31.639Z,4.43
2022-08-26T19:51:58.789Z,4.25
2022-08-26T19:54:25.802Z,4.05
2022-08-26T19:56:52.919Z,4.28
2022-08-26T19:59:20.098Z,3.42
2022-08-26T20:01:47.383Z,4.22
2022-08-26T20:04:27.941Z,4.15
2022-08-26T20:06:57.646Z,3.75
2022-08-26T20:09:26.195Z,4.07
2022-08-26T20:11:54.071Z,4.18
2022-08-26T20:14:24.872Z,4.22
2022-08-26T20:16:51.864Z,3.67
2022-08-26T20:19:37.778Z,4.47
2022-08-26T20:22:05.439Z,3.53
2022-08-26T20:24:32.755Z,4.78
2022-08-26T20:27:03.269Z,3.72
2022-08-26T20:29:34.938Z,5.20
2022-08-26T20:32:02.765Z,4.57
2022-08-26T20:34:30.222Z,5.03
2022-08-26T20:36:57.506Z,4.50
2022-08-26T20:39:24.417Z,4.72
2022-08-26T20:41:51.456Z,4.07
2022-08-26T20:44:18.417Z,5.53
2022-08-26T20:46:45.668Z,4.15
2022-08-26T20:49:13.479Z,4.93
2022-08-26T20:51:43.214Z,5.47
2022-08-26T20:54:12.423Z,4.65
2022-08-26T20:56:40.213Z,5.57
2022-08-26T20:59:08.243Z,4.97
2022-08-26T21:01:37.259Z,4.97
2022-08-26T21:04:12.869Z,4.68
2022-08-26T21:06:42.245Z,4.93
2022-08-26T21:09:14.756Z,4.60
2022-08-26T21:11:44.709Z,4.97
2022-08-26T21:14:16.811Z,4.60
2022-08-26T21:16:46.120Z,6.35
2022-08-26T21:19:14.855Z,4.78
2022-08-26T21:21:42.637Z,5.35
2022-08-26T21:24:09.660Z,4.80
2022-08-26T21:26:37.179Z,7.53
2022-08-26T21:29:04.819Z,5.03
2022-08-26T21:31:32.308Z,4.90
2022-08-26T21:33:59.844Z,4.57
2022-08-26T21:36:27.175Z,5.45
2022-08-26T21:38:58.351Z,5.25
2022-08-26T21:41:26.452Z,4.82
2022-08-26T21:43:58.069Z,6.25
2022-08-26T21:46:27.140Z,5.55
2022-08-26T21:48:58.029Z,6.03
2022-08-26T21:51:30.501Z,6.88
2022-08-26T21:53:59.094Z,4.93
2022-08-26T21:56:28.662Z,7.35
2022-08-26T21:58:56.641Z,5.68
2022-08-26T22:01:26.424Z,5.40
2022-08-26T22:03:54.568Z,6.60
2022-08-26T22:06:24.454Z,6.07
2022-08-26T22:08:52.608Z,6.40
2022-08-26T22:11:20.416Z,5.35
2022-08-26T22:13:48.629Z,5.38
2022-08-26T22:16:15.767Z,5.97
2022-08-26T22:18:45.119Z,6.00
2022-08-26T22:21:15.363Z,6.72
2022-08-26T22:23:42.511Z,8.20
2022-08-26T22:26:10.908Z,7.32
2022-08-26T22:28:39.390Z,7.25
2022-08-26T22:31:11.343Z,6.47
2022-08-26T22:33:42.901Z,6.72
2022-08-26T22:36:27.206Z,6.32
2022-08-26T22:38:56.135Z,7.63
2022-08-26T22:41:23.358Z,6.72
2022-08-26T22:43:50.286Z,5.97
2022-08-26T22:46:23.269Z,6.65
2022-08-26T22:48:53.928Z,5.63
2022-08-26T22:51:23.172Z,5.95
2022-08-26T22:53:50.130Z,6.32
2022-08-26T22:56:19.148Z,5.25
2022-08-26T22:58:46.141Z,6.13
2022-08-26T23:01:13.602Z,7.10
2022-08-26T23:03:40.721Z,4.85
2022-08-26T23:06:10.514Z,5.72
2022-08-26T23:08:38.623Z,6.75
2022-08-26T23:11:11.120Z,5.80
2022-08-26T23:13:39.195Z,5.88
2022-08-26T23:16:09.860Z,8.20
2022-08-26T23:18:37.381Z,6.60
2022-08-26T23:21:04.635Z,5.72
2022-08-26T23:23:31.820Z,6.90
2022-08-26T23:25:58.986Z,5.80
2022-08-26T23:28:26.529Z,7.22
2022-08-26T23:30:54.049Z,6.15
2022-08-26T23:33:21.590Z,6.13
2022-08-26T23:35:48.490Z,6.22
2022-08-26T23:38:16.333Z,7.05
2022-08-26T23:40:43.503Z,7.85
2022-08-26T23:43:16.497Z,6.10
2022-08-26T23:45:43.847Z,5.97
2022-08-26T23:48:11.116Z,7.40
2022-08-26T23:50:56.542Z,6.63
2022-08-26T23:53:23.510Z,7.65
2022-08-26T23:55:52.323Z,9.40
2022-08-26T23:58:20.996Z,7.70
